Time;durP1;ratioP1;P1;durP2;ratioP2;P2;SDS_P1;SDS_P2;PMS_P1;PMS_P2;Temp;Humidity;BMP_temperature;BMP_pressure;BME280_temperature;BME280_humidity;BME280_pressure;Samples;Min_cycle;Max_cycle;Signal;HPM_P1;HPM_P2
2022/06/18 00:01:21;;;;;;;8.23;3.33;;;;;;;;;;5052272;28;20230;-15
2022/06/18 00:03:50;;;;;;;5.63;3.65;;;;;;;;;;5052728;28;20226;-17
2022/06/18 00:06:17;;;;;;;3.92;3.40;;;;;;;;;;5052089;28;20329;-17
2022/06/18 00:08:45;;;;;;;4.55;3.60;;;;;;;;;;5051780;28;20230;-16
2022/06/18 00:13:57;;;;;;;5.82;3.70;;;;;;;;;;5037060;28;21073;-17
2022/06/18 00:16:24;;;;;;;5.50;3.40;;;;;;;;;;5043885;28;21080;-17
2022/06/18 00:18:53;;;;;;;10.73;3.65;;;;;;;;;;5052298;28;20222;-17
2022/06/18 00:21:22;;;;;;;4.78;3.60;;;;;;;;;;5051555;28;20362;-17
2022/06/18 00:23:49;;;;;;;6.57;3.60;;;;;;;;;;5052112;28;20238;-17
2022/06/18 00:26:16;;;;;;;5.18;3.92;;;;;;;;;;5052422;28;20230;-17
2022/06/18 00:28:44;;;;;;;6.75;4.10;;;;;;;;;;5051961;28;20230;-17
2022/06/18 00:31:11;;;;;;;4.25;3.50;;;;;;;;;;5051540;28;20222;-17
2022/06/18 00:33:40;;;;;;;5.93;3.90;;;;;;;;;;5052239;28;20240;-17
2022/06/18 00:36:13;;;;;;;5.85;3.80;;;;;;;;;;5052190;28;20248;-17
2022/06/18 00:38:41;;;;;;;5.85;3.65;;;;;;;;;;5052189;28;20232;-17
2022/06/18 00:41:08;;;;;;;7.68;3.60;;;;;;;;;;5051757;28;20234;-17
2022/06/18 00:43:38;;;;;;;7.03;3.65;;;;;;;;;;5051862;28;20241;-17
2022/06/18 00:46:06;;;;;;;8.40;3.75;;;;;;;;;;5052355;28;20230;-17
2022/06/18 00:48:35;;;;;;;5.45;3.35;;;;;;;;;;5052459;28;20230;-17
2022/06/18 00:51:04;;;;;;;8.60;4.18;;;;;;;;;;5052030;28;20230;-17
2022/06/18 00:53:35;;;;;;;12.10;3.88;;;;;;;;;;5052031;28;20728;-17
2022/06/18 00:56:03;;;;;;;5.57;3.78;;;;;;;;;;5053117;28;20230;-17
2022/06/18 00:58:32;;;;;;;5.93;3.40;;;;;;;;;;5046247;28;20234;-17
2022/06/18 01:00:59;;;;;;;10.65;3.75;;;;;;;;;;5043933;28;20613;-17
2022/06/18 01:03:27;;;;;;;5.50;3.90;;;;;;;;;;5051817;28;20238;-17
2022/06/18 01:05:55;;;;;;;6.68;3.90;;;;;;;;;;5051197;28;20227;-17
2022/06/18 01:08:23;;;;;;;6.78;3.70;;;;;;;;;;5052104;28;20241;-17
2022/06/18 01:10:52;;;;;;;4.35;3.58;;;;;;;;;;5052493;28;20250;-17
2022/06/18 01:13:20;;;;;;;7.13;3.88;;;;;;;;;;5050492;28;20241;-17
2022/06/18 01:15:47;;;;;;;10.30;4.20;;;;;;;;;;5046625;28;20277;-17
2022/06/18 01:18:15;;;;;;;6.75;3.65;;;;;;;;;;5050042;28;20312;-17
2022/06/18 01:20:43;;;;;;;6.50;4.28;;;;;;;;;;5048046;28;20249;-17
2022/06/18 01:23:11;;;;;;;5.93;4.18;;;;;;;;;;5050706;28;20234;-17
2022/06/18 01:25:40;;;;;;;7.05;4.30;;;;;;;;;;5051619;28;20226;-17
2022/06/18 01:28:09;;;;;;;9.30;4.47;;;;;;;;;;5051598;28;20231;-17
2022/06/18 01:30:37;;;;;;;7.03;4.22;;;;;;;;;;5051905;28;20230;-17
2022/06/18 01:33:06;;;;;;;4.93;3.80;;;;;;;;;;5051291;28;20234;-17
2022/06/18 01:35:33;;;;;;;5.97;4.10;;;;;;;;;;5051460;28;20237;-17
2022/06/18 01:38:00;;;;;;;9.75;4.28;;;;;;;;;;5051283;28;21021;-17
2022/06/18 01:40:30;;;;;;;6.53;4.20;;;;;;;;;;5051509;28;20242;-17
2022/06/18 01:42:58;;;;;;;8.82;4.43;;;;;;;;;;5051059;28;20237;-18
2022/06/18 01:45:26;;;;;;;5.00;4.18;;;;;;;;;;5050109;28;20226;-18
2022/06/18 01:47:54;;;;;;;7.25;4.45;;;;;;;;;;5051167;28;20234;-17
2022/06/18 01:50:22;;;;;;;9.43;4.25;;;;;;;;;;5051149;28;20613;-18
2022/06/18 01:52:51;;;;;;;7.22;4.80;;;;;;;;;;5050898;28;20233;-18
2022/06/18 01:55:18;;;;;;;5.88;4.22;;;;;;;;;;5050497;28;20233;-18
2022/06/18 01:57:46;;;;;;;8.30;4.25;;;;;;;;;;5051123;28;20238;-17
2022/06/18 02:00:16;;;;;;;6.65;4.57;;;;;;;;;;5051251;28;20233;-17
2022/06/18 02:02:44;;;;;;;7.07;4.70;;;;;;;;;;5051194;28;20226;-18
2022/06/18 02:05:11;;;;;;;8.57;4.57;;;;;;;;;;5050549;28;20322;-17
2022/06/18 02:07:39;;;;;;;9.50;4.72;;;;;;;;;;5047452;28;20242;-18
2022/06/18 02:10:07;;;;;;;7.43;4.63;;;;;;;;;;5043373;28;20739;-18
2022/06/18 02:12:36;;;;;;;11.02;4.78;;;;;;;;;;5045703;28;20226;-18
2022/06/18 02:15:04;;;;;;;6.32;4.43;;;;;;;;;;5036744;28;20273;-18
2022/06/18 02:17:32;;;;;;;9.52;4.82;;;;;;;;;;5041768;28;20229;-17
2022/06/18 02:20:00;;;;;;;6.68;5.35;;;;;;;;;;5050318;28;20246;-18
2022/06/18 02:22:29;;;;;;;8.07;4.60;;;;;;;;;;5089847;22;20263;-15
2022/06/18 02:24:57;;;;;;;9.65;4.60;;;;;;;;;;5085885;28;20231;-15
2022/06/18 02:27:24;;;;;;;8.35;4.60;;;;;;;;;;5086383;28;20245;-15
2022/06/18 02:29:51;;;;;;;9.15;5.25;;;;;;;;;;5071169;28;20231;-15
2022/06/18 02:32:21;;;;;;;7.35;4.90;;;;;;;;;;5076831;28;20226;-15
2022/06/18 02:34:49;;;;;;;5.35;4.85;;;;;;;;;;5087927;28;20247;-15
2022/06/18 02:37:19;;;;;;;12.02;5.35;;;;;;;;;;5076399;28;20230;-15
2022/06/18 02:39:54;;;;;;;11.60;5.20;;;;;;;;;;5087506;28;20232;-15
2022/06/18 02:42:22;;;;;;;5.45;4.95;;;;;;;;;;5088313;28;20964;-15
2022/06/18 02:44:49;;;;;;;6.13;5.13;;;;;;;;;;5088066;28;20228;-15
2022/06/18 02:47:16;;;;;;;11.82;6.20;;;;;;;;;;5087952;28;20247;-15
2022/06/18 02:49:45;;;;;;;7.95;5.47;;;;;;;;;;5089878;28;20232;-15
2022/06/18 02:52:13;;;;;;;8.77;5.93;;;;;;;;;;5089107;28;20231;-15
2022/06/18 02:54:41;;;;;;;7.10;5.65;;;;;;;;;;5090450;28;20258;-15
2022/06/18 02:57:19;;;;;;;9.65;6.03;;;;;;;;;;5090671;28;20236;-15
2022/06/18 02:59:47;;;;;;;6.80;5.57;;;;;;;;;;5089517;28;20301;-15
2022/06/18 03:02:14;;;;;;;10.43;5.70;;;;;;;;;;5083709;28;20709;-15
2022/06/18 03:04:42;;;;;;;9.98;6.32;;;;;;;;;;5087715;28;20696;-15
2022/06/18 03:07:09;;;;;;;10.45;6.18;;;;;;;;;;5089979;28;20646;-15
2022/06/18 03:12:06;;;;;;;9.77;6.00;;;;;;;;;;5090092;28;20964;-15
2022/06/18 03:12:25;;;;;;;10.43;6.55;;;;;;;;;;5089185;28;20774;-15
2022/06/18 03:14:53;;;;;;;8.60;6.85;;;;;;;;;;5089994;28;20233;-15
2022/06/18 03:17:20;;;;;;;9.23;6.45;;;;;;;;;;5080403;28;20226;-15
2022/06/18 03:19:50;;;;;;;11.30;7.07;;;;;;;;;;5085998;28;20324;-15
2022/06/18 03:22:17;;;;;;;7.30;6.38;;;;;;;;;;5075753;28;20314;-15
2022/06/18 03:24:46;;;;;;;13.07;7.72;;;;;;;;;;5074571;28;20228;-15
2022/06/18 03:27:14;;;;;;;9.10;7.55;;;;;;;;;;5069704;28;20245;-15
2022/06/18 03:29:42;;;;;;;10.82;7.45;;;;;;;;;;5070461;28;20321;-15
2022/06/18 03:32:10;;;;;;;10.73;7.85;;;;;;;;;;5072825;28;20604;-15
2022/06/18 03:34:37;;;;;;;9.70;7.45;;;;;;;;;;5072450;28;20255;-15
2022/06/18 03:37:05;;;;;;;11.93;7.63;;;;;;;;;;5073061;28;20229;-15
2022/06/18 03:39:32;;;;;;;7.97;7.18;;;;;;;;;;5073245;28;20324;-15
2022/06/18 03:42:01;;;;;;;10.27;7.25;;;;;;;;;;5072425;28;20225;-15
2022/06/18 03:44:28;;;;;;;13.68;7.65;;;;;;;;;;5072264;28;21356;-15
2022/06/18 03:46:56;;;;;;;13.88;8.02;;;;;;;;;;5072317;28;20293;-15
2022/06/18 03:49:24;;;;;;;11.18;7.63;;;;;;;;;;5071952;28;20317;-15
2022/06/18 03:51:52;;;;;;;10.45;8.25;;;;;;;;;;5072762;28;20226;-15
2022/06/18 03:54:19;;;;;;;11.27;7.50;;;;;;;;;;5072862;28;20238;-15
2022/06/18 03:56:47;;;;;;;13.38;7.88;;;;;;;;;;5073148;28;20229;-15
2022/06/18 03:59:16;;;;;;;10.60;7.30;;;;;;;;;;5069929;28;20813;-15
2022/06/18 04:01:43;;;;;;;9.73;7.50;;;;;;;;;;5070942;28;20245;-15
2022/06/18 04:04:11;;;;;;;9.45;7.70;;;;;;;;;;5070407;28;20232;-15
2022/06/18 04:06:39;;;;;;;9.93;8.13;;;;;;;;;;5069782;28;20233;-15
2022/06/18 04:09:06;;;;;;;13.27;7.50;;;;;;;;;;5070564;28;20229;-15
2022/06/18 04:11:34;;;;;;;8.82;7.80;;;;;;;;;;5070262;28;20222;-16
2022/06/18 04:14:02;;;;;;;9.38;8.45;;;;;;;;;;5071950;28;20265;-15
2022/06/18 04:16:31;;;;;;;10.70;8.55;;;;;;;;;;5064296;28;20226;-15
2022/06/18 04:18:58;;;;;;;10.05;9.05;;;;;;;;;;5074193;28;20233;-15
2022/06/18 04:21:26;;;;;;;13.80;8.30;;;;;;;;;;5072007;28;20311;-15
2022/06/18 04:23:54;;;;;;;10.18;9.07;;;;;;;;;;5072556;28;20229;-15
2022/06/18 04:26:21;;;;;;;15.52;9.15;;;;;;;;;;5072298;28;20244;-16
2022/06/18 04:28:49;;;;;;;12.35;8.88;;;;;;;;;;5066920;28;20288;-15
2022/06/18 04:31:16;;;;;;;13.88;9.27;;;;;;;;;;5067605;28;20896;-15
2022/06/18 04:33:45;;;;;;;12.50;8.93;;;;;;;;;;5072686;28;20316;-15
2022/06/18 04:36:19;;;;;;;11.85;9.30;;;;;;;;;;5072252;28;20242;-15
2022/06/18 04:38:46;;;;;;;11.30;9.35;;;;;;;;;;5070989;28;20239;-15
2022/06/18 04:41:14;;;;;;;11.75;9.57;;;;;;;;;;5070667;28;20238;-15
2022/06/18 04:43:41;;;;;;;14.63;9.93;;;;;;;;;;5072065;28;20234;-15
2022/06/18 04:46:09;;;;;;;11.60;9.68;;;;;;;;;;5072315;28;20226;-15
2022/06/18 04:48:37;;;;;;;10.60;9.50;;;;;;;;;;5072233;28;20325;-15
2022/06/18 04:51:05;;;;;;;14.98;9.73;;;;;;;;;;5064320;28;20230;-15
2022/06/18 04:53:33;;;;;;;14.57;10.40;;;;;;;;;;5068773;28;20237;-15
2022/06/18 04:56:00;;;;;;;19.50;10.40;;;;;;;;;;5071512;28;20229;-15
2022/06/18 04:58:28;;;;;;;12.45;10.77;;;;;;;;;;5071280;28;20304;-15
2022/06/18 05:00:55;;;;;;;14.38;10.80;;;;;;;;;;5071379;28;20237;-15
2022/06/18 05:03:22;;;;;;;18.92;11.18;;;;;;;;;;5065193;28;20229;-15
2022/06/18 05:05:50;;;;;;;14.05;11.32;;;;;;;;;;5071204;28;20225;-15
2022/06/18 05:08:19;;;;;;;15.35;11.25;;;;;;;;;;5071858;28;20252;-15
2022/06/18 05:10:46;;;;;;;11.30;10.15;;;;;;;;;;5071584;28;20229;-15
2022/06/18 05:13:14;;;;;;;15.25;10.57;;;;;;;;;;5071227;28;20811;-15
2022/06/18 05:15:41;;;;;;;18.60;12.07;;;;;;;;;;5071232;28;20252;-15
2022/06/18 05:18:11;;;;;;;14.10;10.85;;;;;;;;;;5071588;28;20343;-15
2022/06/18 05:20:38;;;;;;;16.35;11.80;;;;;;;;;;5067814;28;20233;-15
2022/06/18 05:23:06;;;;;;;19.95;13.15;;;;;;;;;;5070720;28;20244;-15
2022/06/18 05:25:34;;;;;;;15.43;11.60;;;;;;;;;;5070927;28;20228;-15
2022/06/18 05:28:02;;;;;;;15.48;11.93;;;;;;;;;;5056704;28;20242;-15
2022/06/18 05:30:29;;;;;;;15.73;11.55;;;;;;;;;;5063120;28;20229;-15
2022/06/18 05:32:57;;;;;;;16.33;12.07;;;;;;;;;;5066461;28;20257;-15
2022/06/18 05:35:24;;;;;;;15.38;11.85;;;;;;;;;;5060888;28;20230;-15
2022/06/18 05:37:51;;;;;;;15.65;12.23;;;;;;;;;;5065531;28;20234;-15
2022/06/18 05:40:20;;;;;;;17.25;12.45;;;;;;;;;;5059774;28;20244;-15
2022/06/18 05:42:48;;;;;;;16.90;12.05;;;;;;;;;;5071004;28;20225;-15
2022/06/18 05:45:16;;;;;;;15.75;13.10;;;;;;;;;;5068381;28;20231;-15
2022/06/18 05:47:43;;;;;;;18.13;13.55;;;;;;;;;;5063700;28;20229;-15
2022/06/18 05:50:12;;;;;;;14.63;12.73;;;;;;;;;;5066090;28;20241;-15
2022/06/18 05:52:39;;;;;;;16.35;13.43;;;;;;;;;;5068825;28;20225;-15
2022/06/18 05:55:07;;;;;;;14.38;12.52;;;;;;;;;;5069029;28;20240;-15
2022/06/18 05:57:35;;;;;;;16.80;13.10;;;;;;;;;;5069948;28;20813;-15
2022/06/18 06:00:06;;;;;;;18.17;12.70;;;;;;;;;;5069516;28;20240;-15
2022/06/18 06:02:33;;;;;;;15.00;12.90;;;;;;;;;;5058329;28;20277;-15
2022/06/18 06:05:01;;;;;;;19.30;13.25;;;;;;;;;;5065802;28;20236;-15
2022/06/18 06:07:28;;;;;;;17.27;12.23;;;;;;;;;;5064704;28;20296;-15
2022/06/18 06:12:41;;;;;;;18.17;13.30;;;;;;;;;;5054251;28;20275;-15
2022/06/18 06:15:10;;;;;;;15.43;12.98;;;;;;;;;;5064706;28;20233;-15
2022/06/18 06:17:38;;;;;;;17.15;13.88;;;;;;;;;;5057742;28;20232;-15
2022/06/18 06:20:06;;;;;;;18.70;13.18;;;;;;;;;;5058185;28;20242;-15
2022/06/18 06:22:34;;;;;;;19.00;13.02;;;;;;;;;;5053122;28;20241;-15
2022/06/18 06:25:01;;;;;;;18.08;12.05;;;;;;;;;;5063580;28;20236;-15
2022/06/18 06:27:28;;;;;;;17.02;12.10;;;;;;;;;;5053205;28;20795;-15
2022/06/18 06:29:56;;;;;;;16.27;12.27;;;;;;;;;;5061789;28;20272;-15
2022/06/18 06:32:24;;;;;;;16.45;12.43;;;;;;;;;;5064172;28;20249;-15
2022/06/18 06:34:52;;;;;;;17.45;12.65;;;;;;;;;;5061392;28;20233;-15
2022/06/18 06:37:19;;;;;;;18.45;10.98;;;;;;;;;;5069000;28;20221;-15
2022/06/18 06:39:47;;;;;;;18.67;11.90;;;;;;;;;;5069776;28;21121;-15
2022/06/18 06:42:15;;;;;;;14.73;11.10;;;;;;;;;;5069282;28;20390;-15
2022/06/18 06:44:43;;;;;;;17.65;11.60;;;;;;;;;;5069994;28;20225;-15
2022/06/18 06:47:11;;;;;;;15.40;12.05;;;;;;;;;;5070170;28;21011;-15
2022/06/18 06:49:39;;;;;;;18.60;11.50;;;;;;;;;;5070192;28;20613;-15
2022/06/18 06:52:07;;;;;;;18.80;10.52;;;;;;;;;;5069301;28;20221;-15
2022/06/18 06:54:34;;;;;;;20.15;11.88;;;;;;;;;;5069618;28;20229;-15
2022/06/18 06:59:47;;;;;;;13.35;10.57;;;;;;;;;;5070102;28;20295;-15
2022/06/18 07:02:15;;;;;;;20.63;12.98;;;;;;;;;;5070141;28;20261;-15
2022/06/18 07:04:44;;;;;;;14.63;11.70;;;;;;;;;;5081229;28;20225;-15
2022/06/18 07:07:12;;;;;;;20.00;12.68;;;;;;;;;;5072263;28;20291;-15
2022/06/18 07:09:40;;;;;;;14.48;11.70;;;;;;;;;;5073200;28;20225;-15
2022/06/18 07:12:08;;;;;;;16.77;11.15;;;;;;;;;;5072677;28;20232;-16
2022/06/18 07:14:36;;;;;;;30.52;11.02;;;;;;;;;;5070049;28;20240;-15
2022/06/18 07:17:04;;;;;;;16.58;11.27;;;;;;;;;;5072975;28;20229;-15
2022/06/18 07:19:31;;;;;;;20.10;11.02;;;;;;;;;;5070176;28;21143;-15
2022/06/18 07:22:00;;;;;;;19.35;11.02;;;;;;;;;;5068894;28;20247;-15
2022/06/18 07:24:28;;;;;;;21.20;10.13;;;;;;;;;;5072688;28;20316;-15
2022/06/18 07:26:55;;;;;;;20.42;8.70;;;;;;;;;;5073492;28;20241;-15
2022/06/18 07:29:23;;;;;;;15.20;8.27;;;;;;;;;;5073911;28;20236;-15
2022/06/18 07:31:50;;;;;;;18.13;7.45;;;;;;;;;;5063525;28;20599;-15
2022/06/18 07:34:17;;;;;;;20.65;7.60;;;;;;;;;;5068762;28;20233;-15
2022/06/18 07:36:45;;;;;;;13.85;7.53;;;;;;;;;;5067786;28;20225;-15
2022/06/18 07:39:13;;;;;;;19.75;7.75;;;;;;;;;;5073667;28;20221;-15
2022/06/18 07:41:42;;;;;;;16.80;7.25;;;;;;;;;;5066286;28;20233;-15
2022/06/18 07:44:09;;;;;;;16.70;7.45;;;;;;;;;;5073528;28;20229;-15
2022/06/18 07:46:37;;;;;;;16.70;7.18;;;;;;;;;;5069943;28;20284;-15
2022/06/18 07:49:06;;;;;;;11.40;6.75;;;;;;;;;;5063801;28;20265;-15
2022/06/18 07:51:34;;;;;;;12.98;6.72;;;;;;;;;;5072343;28;20222;-15
2022/06/18 07:54:01;;;;;;;13.65;6.68;;;;;;;;;;5072250;28;20238;-15
2022/06/18 07:56:30;;;;;;;11.30;7.25;;;;;;;;;;5072461;28;20252;-15
2022/06/18 07:58:58;;;;;;;10.90;6.97;;;;;;;;;;5072521;28;20276;-15
2022/06/18 08:01:25;;;;;;;12.95;6.72;;;;;;;;;;5072822;28;20241;-15
2022/06/18 08:03:52;;;;;;;18.83;7.70;;;;;;;;;;5072892;28;20234;-15
2022/06/18 08:06:20;;;;;;;12.60;7.18;;;;;;;;;;5073125;28;20243;-15
2022/06/18 08:08:47;;;;;;;12.48;6.97;;;;;;;;;;5072449;28;20728;-15
2022/06/18 08:11:15;;;;;;;10.65;7.05;;;;;;;;;;5072863;28;20232;-15
2022/06/18 08:13:44;;;;;;;11.73;6.55;;;;;;;;;;5072719;28;20257;-15
2022/06/18 08:16:12;;;;;;;11.32;7.13;;;;;;;;;;5060692;28;20987;-15
2022/06/18 08:18:40;;;;;;;9.68;6.10;;;;;;;;;;5072627;28;20226;-15
2022/06/18 08:21:08;;;;;;;11.98;6.95;;;;;;;;;;5060095;28;20237;-15
2022/06/18 08:23:35;;;;;;;10.82;6.38;;;;;;;;;;5073029;28;20229;-16
2022/06/18 08:26:03;;;;;;;10.77;6.70;;;;;;;;;;5072413;28;21083;-15
2022/06/18 08:28:30;;;;;;;12.52;6.95;;;;;;;;;;5072980;28;20247;-15
2022/06/18 08:30:59;;;;;;;9.00;6.38;;;;;;;;;;5072021;28;20665;-15
2022/06/18 08:33:28;;;;;;;9.15;6.93;;;;;;;;;;5072632;28;20295;-15
2022/06/18 08:35:56;;;;;;;9.07;6.50;;;;;;;;;;5072491;28;20229;-15
2022/06/18 08:38:24;;;;;;;8.07;6.10;;;;;;;;;;5072143;28;20704;-15
2022/06/18 08:40:57;;;;;;;13.68;6.60;;;;;;;;;;5072531;28;20242;-15
2022/06/18 08:43:31;;;;;;;12.75;6.65;;;;;;;;;;5072094;28;20233;-15
2022/06/18 08:46:01;;;;;;;13.70;6.05;;;;;;;;;;5072012;28;20229;-15
2022/06/18 08:48:51;;;;;;;11.63;6.70;;;;;;;;;;5058253;28;20229;-15
2022/06/18 08:51:22;;;;;;;10.38;5.97;;;;;;;;;;5072249;28;20242;-15
2022/06/18 08:53:53;;;;;;;10.40;6.68;;;;;;;;;;5072171;28;20233;-15
2022/06/18 08:56:23;;;;;;;9.07;6.13;;;;;;;;;;5072429;28;20692;-15
2022/06/18 08:58:52;;;;;;;9.30;6.35;;;;;;;;;;5071862;28;20226;-15
2022/06/18 09:01:21;;;;;;;8.45;6.30;;;;;;;;;;5071731;28;20245;-15
2022/06/18 09:03:52;;;;;;;11.55;5.97;;;;;;;;;;5068741;28;20234;-15
2022/06/18 09:06:24;;;;;;;12.18;6.03;;;;;;;;;;5071887;28;21030;-15
2022/06/18 09:08:57;;;;;;;7.13;6.00;;;;;;;;;;5071603;28;20232;-15
2022/06/18 09:11:41;;;;;;;10.35;6.68;;;;;;;;;;5071369;28;20222;-15
2022/06/18 09:14:09;;;;;;;12.85;6.13;;;;;;;;;;5071081;28;20233;-15
2022/06/18 09:16:39;;;;;;;13.63;6.43;;;;;;;;;;5064385;28;20226;-15
2022/06/18 09:19:08;;;;;;;7.95;6.78;;;;;;;;;;5071781;28;20229;-15
2022/06/18 09:21:37;;;;;;;9.13;6.45;;;;;;;;;;5071287;28;20237;-15
2022/06/18 09:24:04;;;;;;;12.82;6.97;;;;;;;;;;5071351;28;20340;-15
2022/06/18 09:26:33;;;;;;;11.90;6.75;;;;;;;;;;5071223;28;20225;-15
2022/06/18 09:29:01;;;;;;;9.68;6.05;;;;;;;;;;5071183;28;20259;-15
2022/06/18 09:31:30;;;;;;;10.93;7.18;;;;;;;;;;5071807;28;20322;-15
2022/06/18 09:33:59;;;;;;;9.15;6.35;;;;;;;;;;5071448;28;20240;-15
2022/06/18 09:36:28;;;;;;;16.83;8.05;;;;;;;;;;5070011;28;20249;-15
2022/06/18 09:38:58;;;;;;;12.75;6.60;;;;;;;;;;5070969;28;20283;-15
2022/06/18 09:41:27;;;;;;;8.32;6.35;;;;;;;;;;5071273;28;20644;-15
2022/06/18 09:43:55;;;;;;;7.78;6.10;;;;;;;;;;5071471;28;20232;-15
2022/06/18 09:46:24;;;;;;;11.77;7.05;;;;;;;;;;5071037;28;20770;-15
2022/06/18 09:48:52;;;;;;;11.57;6.60;;;;;;;;;;5066348;28;20244;-15
2022/06/18 09:51:24;;;;;;;11.77;7.30;;;;;;;;;;5071203;28;20229;-15
2022/06/18 09:53:52;;;;;;;10.32;6.72;;;;;;;;;;5071779;28;20226;-15
2022/06/18 09:56:20;;;;;;;12.02;6.47;;;;;;;;;;5071282;28;21017;-15
2022/06/18 09:58:49;;;;;;;9.38;6.45;;;;;;;;;;5071048;28;20221;-15
2022/06/18 10:01:18;;;;;;;11.30;6.13;;;;;;;;;;5070342;28;20237;-15
2022/06/18 10:09:38;;;;;;;10.90;6.13;;;;;;;;;;5058917;28;20238;-15
2022/06/18 10:12:08;;;;;;;11.93;6.53;;;;;;;;;;5071287;28;20229;-15
2022/06/18 10:14:35;;;;;;;13.35;7.05;;;;;;;;;;5070992;28;20230;-15
2022/06/18 10:17:06;;;;;;;11.63;6.20;;;;;;;;;;5070740;28;20235;-15
2022/06/18 10:19:36;;;;;;;12.02;6.60;;;;;;;;;;5056952;28;20676;-15
2022/06/18 10:22:06;;;;;;;12.77;6.20;;;;;;;;;;5073394;28;20253;-15
2022/06/18 10:24:35;;;;;;;13.10;6.22;;;;;;;;;;5070843;28;20255;-15
2022/06/18 10:27:04;;;;;;;13.55;6.90;;;;;;;;;;5070337;28;20230;-15
2022/06/18 10:29:33;;;;;;;11.07;6.45;;;;;;;;;;5070905;28;20244;-15
2022/06/18 10:32:05;;;;;;;14.80;6.47;;;;;;;;;;5070307;28;20225;-15
2022/06/18 10:34:46;;;;;;;13.43;7.07;;;;;;;;;;5070629;28;20225;-15
2022/06/18 10:37:18;;;;;;;12.32;6.75;;;;;;;;;;5070646;28;20626;-15
2022/06/18 10:40:07;;;;;;;9.25;5.88;;;;;;;;;;5057108;28;20226;-15
2022/06/18 10:42:38;;;;;;;10.98;6.30;;;;;;;;;;5058397;28;20349;-15
2022/06/18 10:45:10;;;;;;;16.70;7.13;;;;;;;;;;5056590;28;20307;-15
2022/06/18 10:47:38;;;;;;;11.05;6.32;;;;;;;;;;5070666;28;21221;-15
2022/06/18 10:50:08;;;;;;;14.27;7.05;;;;;;;;;;5070467;28;20240;-15
2022/06/18 10:52:37;;;;;;;10.52;6.38;;;;;;;;;;5069548;28;20239;-15
2022/06/18 10:55:05;;;;;;;12.50;6.85;;;;;;;;;;5070336;28;20225;-15
2022/06/18 10:57:32;;;;;;;10.60;6.40;;;;;;;;;;5070589;28;20241;-15
2022/06/18 11:00:08;;;;;;;9.77;6.35;;;;;;;;;;5070761;28;20237;-15
2022/06/18 11:02:35;;;;;;;12.27;6.63;;;;;;;;;;5056618;28;20237;-15
2022/06/18 11:05:04;;;;;;;14.43;6.97;;;;;;;;;;5073434;28;20240;-15
2022/06/18 11:07:32;;;;;;;9.55;6.28;;;;;;;;;;5070358;28;20621;-15
2022/06/18 11:10:02;;;;;;;10.30;6.22;;;;;;;;;;5070534;28;20233;-15
2022/06/18 11:12:31;;;;;;;14.18;6.45;;;;;;;;;;5070107;28;20277;-15
2022/06/18 11:14:59;;;;;;;8.55;6.18;;;;;;;;;;5070014;28;20232;-15
2022/06/18 11:17:27;;;;;;;9.43;6.22;;;;;;;;;;5069790;28;20233;-15
2022/06/18 11:19:54;;;;;;;11.73;6.75;;;;;;;;;;5070449;28;20240;-15
2022/06/18 11:22:23;;;;;;;11.18;6.60;;;;;;;;;;5069886;28;20241;-15
2022/06/18 11:24:52;;;;;;;11.55;6.22;;;;;;;;;;5070456;28;20755;-15
2022/06/18 11:27:21;;;;;;;12.68;6.40;;;;;;;;;;5069460;28;20230;-15
2022/06/18 11:29:49;;;;;;;13.15;6.85;;;;;;;;;;5056729;28;20367;-15
2022/06/18 11:32:18;;;;;;;12.30;6.70;;;;;;;;;;5070105;28;20225;-15
2022/06/18 11:34:49;;;;;;;11.07;6.28;;;;;;;;;;5070012;28;20249;-15
2022/06/18 11:37:19;;;;;;;11.02;6.85;;;;;;;;;;5069303;28;20347;-15
2022/06/18 11:39:52;;;;;;;8.18;6.15;;;;;;;;;;5070442;28;20225;-15
2022/06/18 11:42:21;;;;;;;11.63;6.82;;;;;;;;;;5069281;28;20860;-15
2022/06/18 11:44:49;;;;;;;8.43;6.38;;;;;;;;;;5070305;28;20685;-15
2022/06/18 11:47:18;;;;;;;9.13;6.70;;;;;;;;;;5069399;28;20693;-15
2022/06/18 11:49:46;;;;;;;18.88;7.38;;;;;;;;;;5069969;28;20240;-15
2022/06/18 11:52:15;;;;;;;12.13;6.70;;;;;;;;;;5073063;28;20240;-15
2022/06/18 11:54:46;;;;;;;10.38;6.75;;;;;;;;;;5073024;28;21283;-15
2022/06/18 11:57:15;;;;;;;8.13;6.18;;;;;;;;;;5072996;28;20233;-15
2022/06/18 11:59:46;;;;;;;13.57;6.70;;;;;;;;;;5073422;28;20230;-15
2022/06/18 12:02:19;;;;;;;10.27;6.25;;;;;;;;;;5073082;28;20221;-15
2022/06/18 12:04:48;;;;;;;11.00;5.78;;;;;;;;;;5073140;28;20240;-15
2022/06/18 12:07:16;;;;;;;8.45;5.85;;;;;;;;;;5072353;28;20236;-15
2022/06/18 12:09:44;;;;;;;14.80;6.55;;;;;;;;;;5067677;28;20234;-15
2022/06/18 12:12:30;;;;;;;13.13;6.60;;;;;;;;;;5068634;28;20236;-15
2022/06/18 12:15:00;;;;;;;11.88;6.80;;;;;;;;;;5072636;28;20228;-15
2022/06/18 12:17:28;;;;;;;10.73;6.20;;;;;;;;;;5072666;28;20241;-15
2022/06/18 12:19:56;;;;;;;10.60;6.45;;;;;;;;;;5073007;28;20233;-15
2022/06/18 12:22:26;;;;;;;9.85;5.93;;;;;;;;;;5074943;28;20245;-15
2022/06/18 12:24:55;;;;;;;12.13;6.50;;;;;;;;;;5072864;28;20239;-15
2022/06/18 12:27:23;;;;;;;10.93;6.72;;;;;;;;;;5072793;28;20230;-15
2022/06/18 12:30:01;;;;;;;11.05;6.60;;;;;;;;;;5072812;28;20233;-15
2022/06/18 12:32:31;;;;;;;11.43;6.60;;;;;;;;;;5071855;28;20225;-15
2022/06/18 12:35:02;;;;;;;12.38;6.85;;;;;;;;;;5072832;28;20228;-15
2022/06/18 12:37:33;;;;;;;12.93;7.25;;;;;;;;;;5072420;28;20234;-15
2022/06/18 12:40:01;;;;;;;12.18;6.85;;;;;;;;;;5058883;28;20233;-15
2022/06/18 12:42:29;;;;;;;12.45;7.07;;;;;;;;;;5071636;28;20226;-15
2022/06/18 12:44:59;;;;;;;12.00;7.00;;;;;;;;;;5072341;28;20272;-15
2022/06/18 12:47:30;;;;;;;10.10;6.40;;;;;;;;;;5072233;28;20236;-15
2022/06/18 12:49:59;;;;;;;10.52;6.40;;;;;;;;;;5072758;28;20256;-15
2022/06/18 12:52:30;;;;;;;8.15;6.13;;;;;;;;;;5072195;28;20835;-15
2022/06/18 12:55:01;;;;;;;11.55;6.38;;;;;;;;;;5072068;28;20237;-15
2022/06/18 12:57:29;;;;;;;12.57;6.70;;;;;;;;;;5057616;28;20235;-15
2022/06/18 13:00:00;;;;;;;13.35;6.43;;;;;;;;;;5072263;28;20271;-15
2022/06/18 13:02:29;;;;;;;14.52;6.93;;;;;;;;;;5071264;28;20312;-15
2022/06/18 13:05:02;;;;;;;10.38;6.63;;;;;;;;;;5071398;28;20241;-15
2022/06/18 13:07:31;;;;;;;13.07;6.47;;;;;;;;;;5071464;28;20316;-15
2022/06/18 13:10:01;;;;;;;9.60;6.63;;;;;;;;;;5072086;28;20713;-15
2022/06/18 13:12:36;;;;;;;13.13;6.07;;;;;;;;;;5071905;28;20237;-15
2022/06/18 13:15:07;;;;;;;8.90;6.25;;;;;;;;;;5071775;28;20689;-15
2022/06/18 13:17:37;;;;;;;9.88;6.70;;;;;;;;;;5069558;28;20315;-15
2022/06/18 13:20:11;;;;;;;10.15;5.85;;;;;;;;;;5071559;28;20225;-15
2022/06/18 13:22:39;;;;;;;10.85;5.80;;;;;;;;;;5070493;28;20237;-15
2022/06/18 13:28:12;;;;;;;8.50;5.90;;;;;;;;;;5028387;28;20226;-15
2022/06/18 13:30:43;;;;;;;8.30;6.03;;;;;;;;;;5063002;28;20225;-15
2022/06/18 13:33:12;;;;;;;11.60;5.93;;;;;;;;;;5058048;28;20287;-15
2022/06/18 13:35:41;;;;;;;11.40;5.93;;;;;;;;;;5071923;28;20723;-15
2022/06/18 13:38:11;;;;;;;12.32;6.18;;;;;;;;;;5070700;28;20233;-15
2022/06/18 13:40:40;;;;;;;11.05;5.82;;;;;;;;;;5071410;28;20232;-15
2022/06/18 13:43:07;;;;;;;9.75;5.72;;;;;;;;;;5071278;28;20609;-15
2022/06/18 13:45:45;;;;;;;9.00;5.60;;;;;;;;;;5071649;28;20963;-15
2022/06/18 13:48:18;;;;;;;12.25;5.50;;;;;;;;;;5056393;28;20946;-15
2022/06/18 13:50:47;;;;;;;8.63;5.40;;;;;;;;;;5080710;28;20228;-15
2022/06/18 13:53:24;;;;;;;9.85;5.88;;;;;;;;;;5071431;28;20238;-15
2022/06/18 13:55:52;;;;;;;10.82;6.53;;;;;;;;;;5071385;28;20444;-15
2022/06/18 13:58:19;;;;;;;10.45;5.97;;;;;;;;;;5071789;28;20229;-15
2022/06/18 14:00:47;;;;;;;13.77;5.82;;;;;;;;;;5070970;28;20676;-15
2022/06/18 14:03:17;;;;;;;9.98;5.93;;;;;;;;;;5071089;28;20312;-15
2022/06/18 14:05:45;;;;;;;13.65;5.68;;;;;;;;;;5070969;28;20248;-15
2022/06/18 14:08:23;;;;;;;11.48;5.72;;;;;;;;;;5071131;28;20229;-15
2022/06/18 14:10:51;;;;;;;10.43;6.03;;;;;;;;;;5069315;28;20237;-15
2022/06/18 14:13:21;;;;;;;8.77;5.78;;;;;;;;;;5070059;28;20233;-15
2022/06/18 14:15:56;;;;;;;8.88;5.82;;;;;;;;;;5069944;28;20621;-15
2022/06/18 14:18:23;;;;;;;10.52;5.40;;;;;;;;;;5070887;28;20236;-16
2022/06/18 14:20:55;;;;;;;9.98;5.10;;;;;;;;;;5070802;28;20232;-16
2022/06/18 14:23:26;;;;;;;8.93;5.25;;;;;;;;;;5070534;28;20233;-15
2022/06/18 14:25:58;;;;;;;8.88;4.68;;;;;;;;;;5070725;28;20241;-15
2022/06/18 14:28:26;;;;;;;8.02;5.50;;;;;;;;;;5070558;28;20234;-15
2022/06/18 14:30:55;;;;;;;10.52;5.05;;;;;;;;;;5070664;28;20935;-15
2022/06/18 14:33:24;;;;;;;5.78;4.75;;;;;;;;;;5072580;28;20708;-15
2022/06/18 14:35:53;;;;;;;9.85;4.70;;;;;;;;;;5070362;28;20232;-15
2022/06/18 14:38:21;;;;;;;7.63;4.80;;;;;;;;;;5070015;28;20222;-15
2022/06/18 14:43:42;;;;;;;8.57;4.72;;;;;;;;;;5069988;28;20230;-15
2022/06/18 14:46:11;;;;;;;7.63;4.60;;;;;;;;;;5070357;28;20355;-15
2022/06/18 14:48:47;;;;;;;10.70;4.68;;;;;;;;;;5070972;28;20240;-15
2022/06/18 14:51:22;;;;;;;6.95;4.70;;;;;;;;;;5070692;28;20228;-15
2022/06/18 14:54:03;;;;;;;6.90;4.75;;;;;;;;;;5070413;28;20240;-15
2022/06/18 14:56:37;;;;;;;8.30;4.78;;;;;;;;;;5070022;28;20236;-15
2022/06/18 14:59:07;;;;;;;8.25;4.50;;;;;;;;;;5070166;28;20237;-15
2022/06/18 15:01:37;;;;;;;12.70;4.30;;;;;;;;;;5070340;28;20237;-15
2022/06/18 15:04:07;;;;;;;13.70;4.40;;;;;;;;;;5070086;28;20233;-15